Time,TemperatureF,DewpointF,PressureIn,WindDirection,WindDirectionDegrees,WindSpeedMPH,WindSpeedGustMPH,Humidity,HourlyPrecipIn,Conditions,Clouds,dailyrainin,SoftwareType,DateUTC
2013-05-23 00:03:00,44.5,42.9,30.04,South,175,3.0,16.0,94,0.00,,,0.00,Wunderground v.1.15,2013-05-23 07:03:00,
2013-05-23 00:08:00,44.4,42.8,30.04,South,174,3.0,16.0,94,0.00,,,0.00,Wunderground v.1.15,2013-05-23 07:08:00,
2013-05-23 00:13:00,44.3,42.7,30.04,South,173,4.0,4.0,94,0.00,,,0.00,Wunderground v.1.15,2013-05-23 07:13:00,
2013-05-23 00:19:00,44.1,42.5,30.04,South,173,4.0,4.0,94,0.00,,,0.00,Wunderground v.1.15,2013-05-23 07:19:00,
2013-05-23 00:24:00,44.1,42.5,30.04,South,173,3.0,3.0,94,0.00,,,0.00,Wunderground v.1.15,2013-05-23 07:24:00,
2013-05-23 00:29:00,44.0,42.4,30.04,South,173,2.0,3.0,94,0.00,,,0.01,Wunderground v.1.15,2013-05-23 07:29:00,
2013-05-23 00:35:00,44.0,42.7,30.04,South,173,2.0,3.0,95,0.08,,,0.02,Wunderground v.1.15,2013-05-23 07:35:00,
2013-05-23 00:40:00,43.9,42.6,30.04,South,173,2.0,2.0,95,0.07,,,0.02,Wunderground v.1.15,2013-05-23 07:40:00,
2013-05-23 00:45:00,43.9,42.6,30.04,South,173,1.0,2.0,95,0.04,,,0.02,Wunderground v.1.15,2013-05-23 07:45:00,
2013-05-23 00:50:00,43.8,42.5,30.04,South,173,1.0,1.0,95,0.00,,,0.02,Wunderground v.1.15,2013-05-23 07:50:00,
2013-05-23 00:57:00,43.8,42.5,30.04,South,173,0.0,1.0,95,0.00,,,0.02,Wunderground v.1.15,2013-05-23 07:57:00,
2013-05-23 01:02:00,43.9,42.6,30.04,South,173,1.0,9.0,95,0.29,,,0.04,Wunderground v.1.15,2013-05-23 08:02:00,
2013-05-23 01:07:00,43.9,42.6,30.04,South,173,2.0,9.0,95,0.16,,,0.05,Wunderground v.1.15,2013-05-23 08:07:00,
2013-05-23 01:13:00,44.0,42.7,30.04,South,173,2.0,9.0,95,0.12,,,0.06,Wunderground v.1.15,2013-05-23 08:13:00,
2013-05-23 01:19:00,43.9,42.6,30.04,South,173,2.0,9.0,95,0.06,,,0.07,Wunderground v.1.15,2013-05-23 08:19:00,
2013-05-23 01:25:00,43.9,42.6,30.04,South,173,2.0,9.0,95,0.06,,,0.07,Wunderground v.1.15,2013-05-23 08:25:00,
2013-05-23 01:30:00,43.9,42.6,30.04,South,173,2.0,2.0,95,0.05,,,0.07,Wunderground v.1.15,2013-05-23 08:30:00,
2013-05-23 01:35:00,43.9,42.6,30.04,South,173,1.0,9.0,95,0.00,,,0.07,Wunderground v.1.15,2013-05-23 08:35:00,
2013-05-23 01:41:00,43.9,42.6,30.05,South,173,1.0,9.0,95,0.00,,,0.07,Wunderground v.1.15,2013-05-23 08:41:00,
2013-05-23 01:47:00,43.9,42.6,30.05,SSE,164,2.0,9.0,95,0.00,,,0.07,Wunderground v.1.15,2013-05-23 08:47:00,
2013-05-23 01:52:00,44.0,42.7,30.05,SSE,164,3.0,9.0,95,0.00,,,0.07,Wunderground v.1.15,2013-05-23 08:52:00,
2013-05-23 01:57:00,44.0,42.7,30.05,SSE,164,3.0,9.0,95,0.00,,,0.07,Wunderground v.1.15,2013-05-23 08:57:00,
2013-05-23 02:03:00,43.9,42.6,30.04,SSE,164,3.0,9.0,95,0.00,,,0.08,Wunderground v.1.15,2013-05-23 09:03:00,
2013-05-23 02:09:00,43.9,42.6,30.05,SSE,164,3.0,9.0,95,0.00,,,0.08,Wunderground v.1.15,2013-05-23 09:09:00,
2013-05-23 02:14:00,43.9,42.6,30.05,SSE,164,2.0,9.0,95,0.00,,,0.08,Wunderground v.1.15,2013-05-23 09:14:00,
2013-05-23 02:19:00,43.9,42.6,30.05,SSE,164,2.0,9.0,95,0.00,,,0.08,Wunderground v.1.15,2013-05-23 09:19:00,
2013-05-23 02:25:00,43.9,42.6,30.04,SSE,164,2.0,9.0,95,0.00,,,0.08,Wunderground v.1.15,2013-05-23 09:25:00,
2013-05-23 02:31:00,43.9,42.6,30.04,SSE,164,2.0,9.0,95,0.00,,,0.08,Wunderground v.1.15,2013-05-23 09:31:00,
2013-05-23 02:37:00,43.9,42.6,30.04,SSE,164,2.0,9.0,95,0.00,,,0.08,Wunderground v.1.15,2013-05-23 09:37:00,
2013-05-23 02:42:00,43.8,42.5,30.04,SSE,164,2.0,9.0,95,0.00,,,0.08,Wunderground v.1.15,2013-05-23 09:42:00,
2013-05-23 02:48:00,43.8,42.5,30.03,SSE,164,2.0,9.0,95,0.00,,,0.08,Wunderground v.1.15,2013-05-23 09:48:00,
2013-05-23 02:53:00,43.7,42.4,30.03,SSE,164,3.0,9.0,95,0.00,,,0.08,Wunderground v.1.15,2013-05-23 09:53:00,
2013-05-23 02:59:00,43.6,42.3,30.03,SSE,164,3.0,9.0,95,0.00,,,0.08,Wunderground v.1.15,2013-05-23 09:59:00,
2013-05-23 03:04:00,43.5,42.2,30.03,SSE,164,3.0,9.0,95,0.00,,,0.08,Wunderground v.1.15,2013-05-23 10:04:00,
2013-05-23 03:09:00,43.4,42.1,30.03,SSE,164,3.0,9.0,95,0.00,,,0.08,Wunderground v.1.15,2013-05-23 10:09:00,
2013-05-23 03:14:00,43.2,41.9,30.02,SSE,164,3.0,9.0,95,0.00,,,0.08,Wunderground v.1.15,2013-05-23 10:14:00,
2013-05-23 03:20:00,43.1,42.0,30.02,SSE,164,3.0,3.0,96,0.00,,,0.08,Wunderground v.1.15,2013-05-23 10:20:00,
2013-05-23 03:26:00,42.9,41.6,30.02,SSE,164,3.0,9.0,95,0.00,,,0.08,Wunderground v.1.15,2013-05-23 10:26:00,
2013-05-23 03:32:00,42.8,41.5,30.03,SSE,164,3.0,9.0,95,0.00,,,0.08,Wunderground v.1.15,2013-05-23 10:32:00,
2013-05-23 03:37:00,42.7,41.6,30.03,SSE,164,2.0,9.0,96,0.00,,,0.08,Wunderground v.1.15,2013-05-23 10:37:00,
2013-05-23 03:43:00,42.8,41.7,30.03,SSE,164,3.0,9.0,96,0.00,,,0.08,Wunderground v.1.15,2013-05-23 10:43:00,
2013-05-23 03:48:00,42.7,41.6,30.03,SSE,164,3.0,9.0,96,0.00,,,0.08,Wunderground v.1.15,2013-05-23 10:48:00,
2013-05-23 03:54:00,42.8,41.7,30.02,SSE,164,3.0,9.0,96,0.00,,,0.08,Wunderground v.1.15,2013-05-23 10:54:00,
2013-05-23 03:59:00,42.8,41.7,30.02,SSE,164,3.0,9.0,96,0.00,,,0.08,Wunderground v.1.15,2013-05-23 10:59:00,
2013-05-23 04:04:00,42.9,41.8,30.02,SSE,164,3.0,9.0,96,0.00,,,0.08,Wunderground v.1.15,2013-05-23 11:04:00,
2013-05-23 04:09:00,42.9,41.8,30.02,SSE,164,3.0,9.0,96,0.00,,,0.08,Wunderground v.1.15,2013-05-23 11:09:00,
2013-05-23 04:15:00,43.0,41.9,30.03,SSE,164,3.0,9.0,96,0.00,,,0.08,Wunderground v.1.15,2013-05-23 11:15:00,
2013-05-23 04:20:00,43.0,41.9,30.03,SSE,164,3.0,3.0,96,0.00,,,0.08,Wunderground v.1.15,2013-05-23 11:20:00,
2013-05-23 04:25:00,43.0,41.9,30.03,SSE,164,3.0,9.0,96,0.00,,,0.08,Wunderground v.1.15,2013-05-23 11:25:00,
2013-05-23 04:30:00,43.2,42.1,30.03,SSE,164,3.0,9.0,96,0.00,,,0.08,Wunderground v.1.15,2013-05-23 11:30:00,
2013-05-23 04:36:00,43.4,42.3,30.03,SSE,164,3.0,9.0,96,0.00,,,0.08,Wunderground v.1.15,2013-05-23 11:36:00,
2013-05-23 04:42:00,43.4,42.3,30.03,SSE,164,3.0,9.0,96,0.00,,,0.08,Wunderground v.1.15,2013-05-23 11:42:00,
2013-05-23 04:48:00,43.4,42.3,30.02,SSE,164,2.0,9.0,96,0.00,,,0.08,Wunderground v.1.15,2013-05-23 11:48:00,
2013-05-23 04:54:00,43.4,42.3,30.02,SSE,164,2.0,9.0,96,0.00,,,0.08,Wunderground v.1.15,2013-05-23 11:54:00,
2013-05-23 04:59:00,43.3,42.2,30.02,SSE,164,2.0,9.0,96,0.00,,,0.08,Wunderground v.1.15,2013-05-23 11:59:00,
2013-05-23 05:05:00,43.3,42.2,30.02,SSE,164,2.0,9.0,96,0.00,,,0.08,Wunderground v.1.15,2013-05-23 12:05:00,
2013-05-23 05:11:00,43.3,42.2,30.02,SSE,164,2.0,9.0,96,0.00,,,0.08,Wunderground v.1.15,2013-05-23 12:11:00,
2013-05-23 05:16:00,43.3,42.2,30.02,SSE,164,1.0,9.0,96,0.00,,,0.08,Wunderground v.1.15,2013-05-23 12:16:00,
2013-05-23 05:21:00,43.3,42.2,30.03,SSE,164,2.0,9.0,96,0.00,,,0.08,Wunderground v.1.15,2013-05-23 12:21:00,
2013-05-23 05:27:00,43.3,42.2,30.03,SSE,164,1.0,9.0,96,0.00,,,0.08,Wunderground v.1.15,2013-05-23 12:27:00,
2013-05-23 05:33:00,43.3,42.2,30.03,SSE,164,1.0,9.0,96,0.00,,,0.08,Wunderground v.1.15,2013-05-23 12:33:00,
2013-05-23 05:38:00,43.3,42.2,30.03,SSE,164,1.0,9.0,96,0.00,,,0.08,Wunderground v.1.15,2013-05-23 12:38:00,
2013-05-23 05:44:00,43.3,42.2,30.03,SSE,164,2.0,9.0,96,0.00,,,0.08,Wunderground v.1.15,2013-05-23 12:44:00,
2013-05-23 05:49:00,43.4,42.3,30.04,SSE,164,1.0,9.0,96,0.00,,,0.08,Wunderground v.1.15,2013-05-23 12:49:00,
2013-05-23 05:55:00,43.4,42.3,30.04,SSE,164,1.0,9.0,96,0.00,,,0.08,Wunderground v.1.15,2013-05-23 12:55:00,
2013-05-23 06:00:00,43.4,42.3,30.04,SSE,164,2.0,9.0,96,0.00,,,0.08,Wunderground v.1.15,2013-05-23 13:00:00,
2013-05-23 06:05:00,43.5,42.4,30.04,SSE,164,3.0,9.0,96,0.00,,,0.08,Wunderground v.1.15,2013-05-23 13:05:00,
2013-05-23 06:10:00,43.6,42.5,30.04,SSE,164,3.0,9.0,96,0.00,,,0.08,Wunderground v.1.15,2013-05-23 13:10:00,
2013-05-23 06:16:00,43.7,42.6,30.04,SSE,164,2.0,9.0,96,0.00,,,0.08,Wunderground v.1.15,2013-05-23 13:16:00,
2013-05-23 06:21:00,43.8,42.7,30.04,SSE,164,2.0,9.0,96,0.00,,,0.08,Wunderground v.1.15,2013-05-23 13:21:00,
2013-05-23 06:27:00,43.9,42.8,30.03,SSE,163,3.0,9.0,96,0.00,,,0.08,Wunderground v.1.15,2013-05-23 13:27:00,
2013-05-23 06:32:00,44.0,42.9,30.04,SSE,163,3.0,9.0,96,0.00,,,0.08,Wunderground v.1.15,2013-05-23 13:32:00,
2013-05-23 06:38:00,44.1,43.0,30.04,SSE,163,3.0,9.0,96,0.00,,,0.08,Wunderground v.1.15,2013-05-23 13:38:00,
2013-05-23 06:44:00,44.3,43.2,30.04,SSE,163,3.0,9.0,96,0.00,,,0.08,Wunderground v.1.15,2013-05-23 13:44:00,
2013-05-23 06:50:00,44.4,43.3,30.04,SSE,163,2.0,9.0,96,0.00,,,0.08,Wunderground v.1.15,2013-05-23 13:50:00,
2013-05-23 06:55:00,44.5,43.4,30.04,SSE,163,2.0,9.0,96,0.00,,,0.08,Wunderground v.1.15,2013-05-23 13:55:00,
2013-05-23 07:01:00,44.5,43.4,30.04,SSE,163,3.0,9.0,96,0.00,,,0.08,Wunderground v.1.15,2013-05-23 14:01:00,
2013-05-23 07:07:00,44.7,43.6,30.04,SSE,163,3.0,9.0,96,0.00,,,0.08,Wunderground v.1.15,2013-05-23 14:07:00,
2013-05-23 07:12:00,44.7,43.6,30.04,SSE,163,4.0,9.0,96,0.00,,,0.08,Wunderground v.1.15,2013-05-23 14:12:00,
2013-05-23 07:18:00,44.7,43.6,30.04,SSE,163,4.0,9.0,96,0.00,,,0.08,Wunderground v.1.15,2013-05-23 14:18:00,
2013-05-23 07:23:00,44.8,43.7,30.05,SSE,163,4.0,9.0,96,0.00,,,0.08,Wunderground v.1.15,2013-05-23 14:23:00,
2013-05-23 07:28:00,45.0,43.9,30.04,SSE,163,3.0,9.0,96,0.00,,,0.08,Wunderground v.1.15,2013-05-23 14:28:00,
2013-05-23 07:34:00,45.2,44.1,30.04,SSE,163,4.0,9.0,96,0.00,,,0.08,Wunderground v.1.15,2013-05-23 14:34:00,
2013-05-23 07:39:00,45.4,44.3,30.05,SSE,166,4.0,9.0,96,0.00,,,0.08,Wunderground v.1.15,2013-05-23 14:39:00,
2013-05-23 07:45:00,45.4,44.3,30.05,SSE,166,4.0,9.0,96,0.00,,,0.08,Wunderground v.1.15,2013-05-23 14:45:00,
2013-05-23 07:51:00,45.5,44.4,30.05,SSE,167,4.0,9.0,96,0.00,,,0.09,Wunderground v.1.15,2013-05-23 14:51:00,
2013-05-23 07:56:00,45.6,44.5,30.05,SSE,167,5.0,9.0,96,0.00,,,0.09,Wunderground v.1.15,2013-05-23 14:56:00,
2013-05-23 08:01:00,45.7,44.6,30.06,SSE,167,4.0,9.0,96,0.00,,,0.09,Wunderground v.1.15,2013-05-23 15:01:00,
2013-05-23 08:07:00,45.8,44.7,30.06,SSE,167,4.0,9.0,96,0.00,,,0.09,Wunderground v.1.15,2013-05-23 15:07:00,
2013-05-23 08:12:00,45.9,44.8,30.06,SSE,167,3.0,9.0,96,0.00,,,0.09,Wunderground v.1.15,2013-05-23 15:12:00,
2013-05-23 08:18:00,46.1,45.0,30.06,SSE,167,3.0,9.0,96,0.00,,,0.09,Wunderground v.1.15,2013-05-23 15:18:00,
2013-05-23 08:24:00,46.2,45.1,30.06,SSE,167,3.0,9.0,96,0.00,,,0.09,Wunderground v.1.15,2013-05-23 15:24:00,
2013-05-23 08:30:00,46.2,45.1,30.06,SSE,165,3.0,9.0,96,0.00,,,0.09,Wunderground v.1.15,2013-05-23 15:30:00,
2013-05-23 08:35:00,46.3,45.2,30.06,SSE,166,3.0,9.0,96,0.00,,,0.09,Wunderground v.1.15,2013-05-23 15:35:00,
2013-05-23 08:41:00,46.4,45.0,30.06,SSE,165,3.0,9.0,95,0.00,,,0.09,Wunderground v.1.15,2013-05-23 15:41:00,
2013-05-23 08:47:00,46.4,45.0,30.06,SSE,166,4.0,9.0,95,0.00,,,0.09,Wunderground v.1.15,2013-05-23 15:47:00,
2013-05-23 08:52:00,46.6,45.5,30.06,SSE,166,4.0,9.0,96,0.00,,,0.09,Wunderground v.1.15,2013-05-23 15:52:00,
2013-05-23 08:58:00,46.7,45.3,30.06,South,179,5.0,9.0,95,0.00,,,0.09,Wunderground v.1.15,2013-05-23 15:58:00,
2013-05-23 09:03:00,46.6,45.2,30.06,South,190,5.0,9.0,95,0.00,,,0.09,Wunderground v.1.15,2013-05-23 16:03:00,
2013-05-23 09:09:00,46.5,45.1,30.06,South,186,6.0,9.0,95,0.00,,,0.09,Wunderground v.1.15,2013-05-23 16:09:00,
2013-05-23 09:15:00,46.8,45.4,30.05,South,175,6.0,9.0,95,0.00,,,0.09,Wunderground v.1.15,2013-05-23 16:15:00,
2013-05-23 09:20:00,47.3,46.2,30.06,South,186,5.0,5.0,96,0.00,,,0.09,Wunderground v.1.15,2013-05-23 16:20:00,
2013-05-23 09:25:00,47.9,46.5,30.06,South,181,5.0,10.0,95,0.00,,,0.09,Wunderground v.1.15,2013-05-23 16:25:00,
2013-05-23 09:30:00,47.8,46.2,30.05,South,187,6.0,9.0,94,0.00,,,0.09,Wunderground v.1.15,2013-05-23 16:30:00,
2013-05-23 09:36:00,47.8,46.2,30.05,SSW,194,6.0,10.0,94,0.00,,,0.09,Wunderground v.1.15,2013-05-23 16:36:00,
2013-05-23 09:41:00,48.2,46.6,30.05,SSW,192,6.0,9.0,94,0.00,,,0.09,Wunderground v.1.15,2013-05-23 16:41:00,
2013-05-23 09:47:00,48.1,46.5,30.06,South,191,6.0,9.0,94,0.00,,,0.09,Wunderground v.1.15,2013-05-23 16:47:00,
2013-05-23 09:52:00,48.2,46.3,30.06,South,190,6.0,9.0,93,0.00,,,0.09,Wunderground v.1.15,2013-05-23 16:52:00,
2013-05-23 09:57:00,48.1,46.2,30.06,SSW,199,5.0,9.0,93,0.00,,,0.09,Wunderground v.1.15,2013-05-23 16:57:00,
2013-05-23 10:02:00,48.2,46.3,30.06,SSW,198,5.0,9.0,93,0.00,,,0.09,Wunderground v.1.15,2013-05-23 17:02:00,
2013-05-23 10:08:00,48.5,46.9,30.06,SSW,198,6.0,9.0,94,0.00,,,0.09,Wunderground v.1.15,2013-05-23 17:08:00,
2013-05-23 10:14:00,48.6,46.7,30.06,SSW,205,6.0,9.0,93,0.00,,,0.09,Wunderground v.1.15,2013-05-23 17:14:00,
2013-05-23 10:20:00,48.5,46.6,30.06,SSW,203,7.0,9.0,93,0.00,,,0.09,Wunderground v.1.15,2013-05-23 17:20:00,
2013-05-23 10:26:00,48.4,46.2,30.06,SSW,203,7.0,9.0,92,0.00,,,0.09,Wunderground v.1.15,2013-05-23 17:26:00,
2013-05-23 10:32:00,48.3,45.8,30.05,SSW,203,7.0,9.0,91,0.00,,,0.09,Wunderground v.1.15,2013-05-23 17:32:00,
2013-05-23 10:38:00,48.4,45.9,30.06,SSW,206,8.0,9.0,91,0.00,,,0.09,Wunderground v.1.15,2013-05-23 17:38:00,
2013-05-23 10:43:00,48.8,46.3,30.06,SSW,203,7.0,9.0,91,0.00,,,0.09,Wunderground v.1.15,2013-05-23 17:43:00,
2013-05-23 10:49:00,49.0,46.2,30.06,SSW,205,7.0,11.0,90,0.00,,,0.09,Wunderground v.1.15,2013-05-23 17:49:00,
2013-05-23 10:55:00,49.3,46.2,30.06,SSW,201,8.0,10.0,89,0.00,,,0.09,Wunderground v.1.15,2013-05-23 17:55:00,
2013-05-23 11:01:00,49.2,45.8,30.05,SSW,208,8.0,9.0,88,0.00,,,0.09,Wunderground v.1.15,2013-05-23 18:01:00,
2013-05-23 11:06:00,49.3,46.2,30.05,SSW,200,8.0,9.0,89,0.00,,,0.09,Wunderground v.1.15,2013-05-23 18:06:00,
2013-05-23 11:11:00,49.4,46.3,30.06,SSW,207,8.0,9.0,89,0.00,,,0.09,Wunderground v.1.15,2013-05-23 18:11:00,
2013-05-23 11:17:00,49.4,46.0,30.06,SSW,203,8.0,11.0,88,0.00,,,0.09,Wunderground v.1.15,2013-05-23 18:17:00,
2013-05-23 11:22:00,49.5,46.1,30.06,SSW,212,9.0,9.0,88,0.00,,,0.09,Wunderground v.1.15,2013-05-23 18:22:00,
2013-05-23 11:27:00,50.2,46.5,30.06,SW,235,8.0,10.0,87,0.00,,,0.09,Wunderground v.1.15,2013-05-23 18:27:00,
2013-05-23 11:33:00,50.7,46.7,30.07,SSW,212,8.0,9.0,86,0.00,,,0.09,Wunderground v.1.15,2013-05-23 18:33:00,
2013-05-23 11:38:00,50.7,46.7,30.07,SSW,198,8.0,11.0,86,0.00,,,0.09,Wunderground v.1.15,2013-05-23 18:38:00,
2013-05-23 11:44:00,50.6,46.6,30.07,SSW,205,8.0,9.0,86,0.00,,,0.09,Wunderground v.1.15,2013-05-23 18:44:00,
2013-05-23 11:50:00,50.1,46.1,30.07,SSW,202,8.0,9.0,86,0.00,,,0.09,Wunderground v.1.15,2013-05-23 18:50:00,
2013-05-23 11:56:00,50.0,46.0,30.07,SSW,200,8.0,11.0,86,0.00,,,0.09,Wunderground v.1.15,2013-05-23 18:56:00,
2013-05-23 12:02:00,49.8,45.8,30.07,SSW,199,8.0,11.0,86,0.00,,,0.09,Wunderground v.1.15,2013-05-23 19:02:00,
2013-05-23 12:07:00,49.9,46.5,30.07,South,190,8.0,14.0,88,0.00,,,0.09,Wunderground v.1.15,2013-05-23 19:07:00,
2013-05-23 12:12:00,50.2,46.5,30.07,SSW,210,8.0,11.0,87,0.00,,,0.09,Wunderground v.1.15,2013-05-23 19:12:00,
2013-05-23 12:18:00,50.3,46.6,30.07,SW,219,8.0,11.0,87,0.00,,,0.09,Wunderground v.1.15,2013-05-23 19:18:00,
2013-05-23 12:23:00,50.5,46.8,30.07,SSW,209,8.0,9.0,87,0.00,,,0.09,Wunderground v.1.15,2013-05-23 19:23:00,
2013-05-23 12:29:00,50.2,46.5,30.07,SSW,206,9.0,14.0,87,0.00,,,0.09,Wunderground v.1.15,2013-05-23 19:29:00,
2013-05-23 12:34:00,50.1,46.4,30.07,SSW,213,9.0,10.0,87,0.00,,,0.09,Wunderground v.1.15,2013-05-23 19:34:00,
2013-05-23 12:39:00,50.1,46.4,30.07,SSW,209,9.0,11.0,87,0.00,,,0.09,Wunderground v.1.15,2013-05-23 19:39:00,
2013-05-23 12:44:00,50.1,46.4,30.07,SW,214,9.0,12.0,87,0.00,,,0.09,Wunderground v.1.15,2013-05-23 19:44:00,
2013-05-23 12:50:00,50.4,46.7,30.07,SSW,207,9.0,9.0,87,0.00,,,0.09,Wunderground v.1.15,2013-05-23 19:50:00,
2013-05-23 12:55:00,50.6,47.2,30.07,SSW,196,8.0,13.0,88,0.00,,,0.09,Wunderground v.1.15,2013-05-23 19:55:00,
2013-05-23 13:01:00,50.6,46.9,30.07,SW,216,8.0,10.0,87,0.00,,,0.09,Wunderground v.1.15,2013-05-23 20:01:00,
2013-05-23 13:07:00,50.9,47.5,30.07,SSW,202,8.0,10.0,88,0.00,,,0.09,Wunderground v.1.15,2013-05-23 20:07:00,
2013-05-23 13:13:00,51.1,48.0,30.07,SSW,198,8.0,9.0,89,0.00,,,0.09,Wunderground v.1.15,2013-05-23 20:13:00,
2013-05-23 13:19:00,51.2,47.8,30.07,SSW,198,8.0,12.0,88,0.00,,,0.09,Wunderground v.1.15,2013-05-23 20:19:00,
2013-05-23 13:24:00,51.0,47.6,30.07,SW,214,8.0,9.0,88,0.00,,,0.09,Wunderground v.1.15,2013-05-23 20:24:00,
2013-05-23 13:29:00,51.2,47.8,30.07,SSW,202,8.0,9.0,88,0.00,,,0.09,Wunderground v.1.15,2013-05-23 20:29:00,
2013-05-23 13:34:00,51.1,48.0,30.08,SW,218,7.0,10.0,89,0.00,,,0.09,Wunderground v.1.15,2013-05-23 20:34:00,
2013-05-23 13:40:00,51.4,48.3,30.08,SSW,201,7.0,7.0,89,0.00,,,0.09,Wunderground v.1.15,2013-05-23 20:40:00,
2013-05-23 13:46:00,51.5,48.1,30.08,SSW,205,7.0,9.0,88,0.00,,,0.09,Wunderground v.1.15,2013-05-23 20:46:00,
2013-05-23 13:51:00,51.2,47.8,30.08,SSW,200,8.0,12.0,88,0.00,,,0.09,Wunderground v.1.15,2013-05-23 20:51:00,
2013-05-23 13:56:00,51.1,47.7,30.08,SSW,205,9.0,12.0,88,0.00,,,0.09,Wunderground v.1.15,2013-05-23 20:56:00,
2013-05-23 14:02:00,51.0,47.3,30.08,SSW,204,9.0,10.0,87,0.00,,,0.09,Wunderground v.1.15,2013-05-23 21:02:00,
2013-05-23 14:07:00,51.5,48.1,30.08,SSW,209,9.0,11.0,88,0.00,,,0.09,Wunderground v.1.15,2013-05-23 21:07:00,
2013-05-23 14:13:00,51.8,48.1,30.08,SSW,209,8.0,11.0,87,0.00,,,0.09,Wunderground v.1.15,2013-05-23 21:13:00,
2013-05-23 14:19:00,52.2,47.8,30.08,SSW,202,7.0,11.0,85,0.00,,,0.09,Wunderground v.1.15,2013-05-23 21:19:00,
2013-05-23 14:25:00,51.8,48.1,30.08,SW,220,7.0,9.0,87,0.00,,,0.09,Wunderground v.1.15,2013-05-23 21:25:00,
2013-05-23 14:30:00,51.8,48.1,30.08,SSW,205,8.0,8.0,87,0.00,,,0.09,Wunderground v.1.15,2013-05-23 21:30:00,
2013-05-23 14:36:00,51.8,48.1,30.08,SSW,196,8.0,11.0,87,0.00,,,0.09,Wunderground v.1.15,2013-05-23 21:36:00,
2013-05-23 14:42:00,52.0,48.3,30.08,SSW,207,8.0,9.0,87,0.00,,,0.09,Wunderground v.1.15,2013-05-23 21:42:00,
2013-05-23 14:47:00,52.1,48.3,30.08,SW,215,8.0,9.0,87,0.00,,,0.09,Wunderground v.1.15,2013-05-23 21:47:00,
2013-05-23 14:53:00,51.7,48.0,30.08,SW,217,8.0,13.0,87,0.00,,,0.09,Wunderground v.1.15,2013-05-23 21:53:00,
2013-05-23 14:58:00,51.5,47.8,30.08,SW,220,8.0,13.0,87,0.00,,,0.09,Wunderground v.1.15,2013-05-23 21:58:00,
2013-05-23 15:03:00,51.6,47.9,30.08,SSW,211,9.0,9.0,87,0.00,,,0.09,Wunderground v.1.15,2013-05-23 22:03:00,
2013-05-23 15:09:00,51.6,48.2,30.08,SSW,213,9.0,12.0,88,0.00,,,0.09,Wunderground v.1.15,2013-05-23 22:09:00,
2013-05-23 15:14:00,51.6,47.9,30.08,SSW,201,8.0,9.0,87,0.00,,,0.09,Wunderground v.1.15,2013-05-23 22:14:00,
2013-05-23 15:20:00,51.5,47.8,30.08,SSW,200,7.0,10.0,87,0.00,,,0.09,Wunderground v.1.15,2013-05-23 22:20:00,
2013-05-23 15:26:00,51.2,47.8,30.08,SSW,209,8.0,10.0,88,0.00,,,0.09,Wunderground v.1.15,2013-05-23 22:26:00,
2013-05-23 15:31:00,52.1,48.7,30.08,SSW,206,7.0,9.0,88,0.00,,,0.09,Wunderground v.1.15,2013-05-23 22:31:00,
2013-05-23 15:37:00,52.5,49.0,30.08,SSW,199,8.0,13.0,88,0.00,,,0.09,Wunderground v.1.15,2013-05-23 22:37:00,
2013-05-23 15:43:00,52.2,48.4,30.08,SSW,208,8.0,9.0,87,0.00,,,0.09,Wunderground v.1.15,2013-05-23 22:43:00,
2013-05-23 15:49:00,51.9,48.2,30.08,SSW,205,7.0,10.0,87,0.00,,,0.09,Wunderground v.1.15,2013-05-23 22:49:00,
2013-05-23 15:54:00,51.6,47.9,30.08,SSW,202,7.0,10.0,87,0.00,,,0.09,Wunderground v.1.15,2013-05-23 22:54:00,
2013-05-23 16:00:00,51.3,47.9,30.08,SSW,192,8.0,8.0,88,0.00,,,0.09,Wunderground v.1.15,2013-05-23 23:00:00,
2013-05-23 16:05:00,51.7,48.3,30.08,SSW,213,8.0,11.0,88,0.00,,,0.09,Wunderground v.1.15,2013-05-23 23:05:00,
2013-05-23 16:11:00,52.0,48.3,30.08,SSW,206,8.0,9.0,87,0.00,,,0.09,Wunderground v.1.15,2013-05-23 23:11:00,
2013-05-23 16:16:00,51.7,48.0,30.08,SSW,211,7.0,9.0,87,0.00,,,0.09,Wunderground v.1.15,2013-05-23 23:16:00,
2013-05-23 16:22:00,51.7,48.0,30.08,SSW,207,7.0,9.0,87,0.00,,,0.09,Wunderground v.1.15,2013-05-23 23:22:00,
2013-05-23 16:28:00,51.6,47.9,30.08,SSW,206,8.0,9.0,87,0.00,,,0.09,Wunderground v.1.15,2013-05-23 23:28:00,
2013-05-23 16:33:00,51.5,47.8,30.08,SSW,211,8.0,9.0,87,0.00,,,0.09,Wunderground v.1.15,2013-05-23 23:33:00,
2013-05-23 16:38:00,51.3,47.6,30.08,SSW,205,8.0,10.0,87,0.00,,,0.09,Wunderground v.1.15,2013-05-23 23:38:00,
2013-05-23 16:43:00,51.6,48.2,30.08,SSW,213,8.0,9.0,88,0.00,,,0.09,Wunderground v.1.15,2013-05-23 23:43:00,
2013-05-23 16:49:00,51.7,48.3,30.08,SSW,210,8.0,9.0,88,0.00,,,0.09,Wunderground v.1.15,2013-05-23 23:49:00,
2013-05-23 16:54:00,51.4,47.7,30.08,SSW,211,7.0,9.0,87,0.00,,,0.09,Wunderground v.1.15,2013-05-23 23:54:00,
2013-05-23 16:59:00,51.2,47.8,30.08,South,191,7.0,9.0,88,0.00,,,0.09,Wunderground v.1.15,2013-05-23 23:59:00,
2013-05-23 17:05:00,51.1,47.7,30.08,SSW,196,7.0,9.0,88,0.00,,,0.09,Wunderground v.1.15,2013-05-24 00:05:00,
2013-05-23 17:10:00,50.9,47.2,30.08,SSW,204,7.0,9.0,87,0.00,,,0.09,Wunderground v.1.15,2013-05-24 00:10:00,
2013-05-23 17:16:00,51.2,47.8,30.08,SSW,201,8.0,12.0,88,0.00,,,0.09,Wunderground v.1.15,2013-05-24 00:16:00,
2013-05-23 17:21:00,51.5,47.8,30.08,SSW,193,7.0,9.0,87,0.00,,,0.09,Wunderground v.1.15,2013-05-24 00:21:00,
2013-05-23 17:26:00,51.4,47.7,30.08,SSW,200,7.0,10.0,87,0.00,,,0.09,Wunderground v.1.15,2013-05-24 00:26:00,
2013-05-23 17:32:00,51.5,48.1,30.08,SSW,208,7.0,9.0,88,0.00,,,0.09,Wunderground v.1.15,2013-05-24 00:32:00,
2013-05-23 17:37:00,51.6,47.9,30.08,SSW,209,7.0,10.0,87,0.00,,,0.09,Wunderground v.1.15,2013-05-24 00:37:00,
2013-05-23 17:42:00,51.2,47.5,30.08,SSW,204,8.0,11.0,87,0.00,,,0.09,Wunderground v.1.15,2013-05-24 00:42:00,
2013-05-23 17:47:00,51.2,47.8,30.08,SSW,205,8.0,11.0,88,0.00,,,0.09,Wunderground v.1.15,2013-05-24 00:47:00,
2013-05-23 17:53:00,50.8,47.4,30.08,SSW,200,8.0,12.0,88,0.00,,,0.09,Wunderground v.1.15,2013-05-24 00:53:00,
2013-05-23 17:58:00,50.4,47.3,30.08,SSW,204,9.0,12.0,89,0.00,,,0.09,Wunderground v.1.15,2013-05-24 00:58:00,
2013-05-23 18:03:00,50.3,47.2,30.08,SSW,206,8.0,9.0,89,0.00,,,0.09,Wunderground v.1.15,2013-05-24 01:03:00,
2013-05-23 18:09:00,50.4,47.6,30.07,SSW,200,7.0,9.0,90,0.00,,,0.09,Wunderground v.1.15,2013-05-24 01:09:00,
2013-05-23 18:15:00,50.5,47.7,30.07,SSW,196,7.0,9.0,90,0.00,,,0.09,Wunderground v.1.15,2013-05-24 01:15:00,
2013-05-23 18:21:00,50.3,47.8,30.07,SSW,206,7.0,10.0,91,0.00,,,0.09,Wunderground v.1.15,2013-05-24 01:21:00,
2013-05-23 18:27:00,50.2,47.7,30.07,SSW,204,6.0,10.0,91,0.00,,,0.09,Wunderground v.1.15,2013-05-24 01:27:00,
2013-05-23 18:33:00,50.1,47.6,30.07,SSW,202,7.0,9.0,91,0.00,,,0.09,Wunderground v.1.15,2013-05-24 01:33:00,
2013-05-23 18:39:00,49.4,47.2,30.07,WSW,254,9.0,16.0,92,0.12,,,0.11,Wunderground v.1.15,2013-05-24 01:39:00,
2013-05-23 18:45:00,49.2,47.0,30.07,WSW,241,9.0,11.0,92,0.16,,,0.12,Wunderground v.1.15,2013-05-24 01:45:00,
2013-05-23 18:50:00,49.3,47.4,30.07,SSW,213,9.0,9.0,93,0.07,,,0.12,Wunderground v.1.15,2013-05-24 01:50:00,
2013-05-23 18:55:00,49.0,47.1,30.07,SW,231,9.0,11.0,93,0.04,,,0.12,Wunderground v.1.15,2013-05-24 01:55:00,
2013-05-23 19:01:00,49.1,47.2,30.07,SSW,203,8.0,9.0,93,0.00,,,0.12,Wunderground v.1.15,2013-05-24 02:01:00,
2013-05-23 19:07:00,49.0,47.1,30.07,SSW,210,7.0,9.0,93,0.00,,,0.12,Wunderground v.1.15,2013-05-24 02:07:00,
2013-05-23 19:21:00,48.9,47.2,30.06,SSW,208,6.0,6.0,94,0.00,,,0.13,Wunderground v.1.15,2013-05-24 02:21:00,
2013-05-23 19:26:00,48.9,47.2,30.07,SW,221,6.0,8.0,94,0.00,,,0.14,Wunderground v.1.15,2013-05-24 02:26:00,
2013-05-23 19:32:00,48.9,47.5,30.07,SW,219,7.0,7.0,95,0.00,,,0.14,Wunderground v.1.15,2013-05-24 02:32:00,
2013-05-23 19:37:00,48.9,47.5,30.06,SW,221,6.0,7.0,95,0.00,,,0.14,Wunderground v.1.15,2013-05-24 02:37:00,
2013-05-23 19:43:00,48.8,47.4,30.06,SW,225,7.0,8.0,95,0.00,,,0.14,Wunderground v.1.15,2013-05-24 02:43:00,
2013-05-23 19:48:00,48.9,47.5,30.07,SW,224,7.0,9.0,95,0.00,,,0.14,Wunderground v.1.15,2013-05-24 02:48:00,
2013-05-23 19:53:00,48.8,47.4,30.07,SW,223,7.0,8.0,95,0.00,,,0.14,Wunderground v.1.15,2013-05-24 02:53:00,
2013-05-23 19:59:00,48.9,47.5,30.07,SW,223,8.0,8.0,95,0.00,,,0.14,Wunderground v.1.15,2013-05-24 02:59:00,
2013-05-23 20:05:00,49.0,47.6,30.07,SW,225,7.0,16.0,95,0.00,,,0.14,Wunderground v.1.15,2013-05-24 03:05:00,
2013-05-23 20:10:00,48.8,47.4,30.07,SW,215,7.0,16.0,95,0.00,,,0.14,Wunderground v.1.15,2013-05-24 03:10:00,
2013-05-23 20:16:00,48.8,47.2,30.07,SW,224,8.0,16.0,94,0.00,,,0.14,Wunderground v.1.15,2013-05-24 03:16:00,
2013-05-23 20:22:00,48.9,47.2,30.07,WSW,243,8.0,16.0,94,0.00,,,0.14,Wunderground v.1.15,2013-05-24 03:22:00,
2013-05-23 20:28:00,48.2,46.6,30.07,WSW,244,8.0,16.0,94,0.00,,,0.14,Wunderground v.1.15,2013-05-24 03:28:00,
2013-05-23 20:33:00,48.0,46.4,30.07,SW,220,8.0,16.0,94,0.00,,,0.14,Wunderground v.1.15,2013-05-24 03:33:00,
2013-05-23 20:39:00,48.0,46.6,30.07,SW,227,7.0,16.0,95,0.00,,,0.14,Wunderground v.1.15,2013-05-24 03:39:00,
2013-05-23 20:45:00,48.3,46.9,30.07,SW,221,7.0,16.0,95,0.00,,,0.14,Wunderground v.1.15,2013-05-24 03:45:00,
2013-05-23 20:51:00,48.5,47.1,30.07,SW,221,5.0,16.0,95,0.00,,,0.14,Wunderground v.1.15,2013-05-24 03:51:00,
2013-05-23 20:57:00,48.4,47.0,30.07,SW,222,5.0,16.0,95,0.00,,,0.14,Wunderground v.1.15,2013-05-24 03:57:00,
2013-05-23 21:01:00,48.3,46.9,30.07,SW,227,6.0,16.0,95,0.00,,,0.14,Wunderground v.1.15,2013-05-24 04:01:00,
2013-05-23 21:02:00,48.2,46.8,30.07,SW,225,6.0,16.0,95,0.00,,,0.14,Wunderground v.1.15,2013-05-24 04:02:00,
2013-05-23 21:03:00,48.3,46.9,30.07,SW,219,7.0,16.0,95,0.00,,,0.14,Wunderground v.1.15,2013-05-24 04:03:00,
2013-05-23 21:07:00,48.3,46.9,30.07,SW,223,7.0,16.0,95,0.00,,,0.14,Wunderground v.1.15,2013-05-24 04:07:00,
2013-05-23 21:12:00,48.5,47.4,30.07,SW,220,6.0,16.0,96,0.00,,,0.14,Wunderground v.1.15,2013-05-24 04:12:00,
2013-05-23 21:18:00,48.5,47.1,30.07,SW,226,6.0,16.0,95,0.00,,,0.14,Wunderground v.1.15,2013-05-24 04:18:00,
2013-05-23 21:23:00,48.6,47.2,30.07,SW,219,7.0,16.0,95,0.00,,,0.14,Wunderground v.1.15,2013-05-24 04:23:00,
2013-05-23 21:28:00,48.7,47.3,30.07,SW,224,7.0,16.0,95,0.00,,,0.15,Wunderground v.1.15,2013-05-24 04:28:00,
2013-05-23 21:34:00,48.7,47.3,30.07,SW,221,6.0,16.0,95,0.00,,,0.15,Wunderground v.1.15,2013-05-24 04:34:00,
2013-05-23 21:39:00,48.5,46.9,30.07,West,272,6.0,16.0,94,0.00,,,0.15,Wunderground v.1.15,2013-05-24 04:39:00,
2013-05-23 21:45:00,47.7,46.1,30.07,WSW,249,9.0,16.0,94,0.04,,,0.16,Wunderground v.1.15,2013-05-24 04:45:00,
2013-05-23 21:50:00,47.9,46.5,30.08,SW,233,10.0,16.0,95,0.08,,,0.17,Wunderground v.1.15,2013-05-24 04:50:00,
2013-05-23 21:56:00,47.7,46.3,30.08,SW,221,9.0,16.0,95,0.08,,,0.17,Wunderground v.1.15,2013-05-24 04:56:00,
2013-05-23 22:02:00,47.9,46.8,30.08,SW,214,8.0,16.0,96,0.05,,,0.17,Wunderground v.1.15,2013-05-24 05:02:00,
2013-05-23 22:08:00,48.1,47.0,30.08,SSW,208,6.0,16.0,96,0.00,,,0.17,Wunderground v.1.15,2013-05-24 05:08:00,
2013-05-23 22:14:00,48.1,47.0,30.08,SW,231,6.0,16.0,96,0.00,,,0.17,Wunderground v.1.15,2013-05-24 05:14:00,
2013-05-23 22:19:00,48.1,47.0,30.08,WSW,250,8.0,16.0,96,0.00,,,0.17,Wunderground v.1.15,2013-05-24 05:19:00,
2013-05-23 22:25:00,48.1,46.7,30.08,WSW,246,8.0,16.0,95,0.00,,,0.17,Wunderground v.1.15,2013-05-24 05:25:00,
2013-05-23 22:31:00,47.9,46.5,30.08,SW,229,9.0,16.0,95,0.00,,,0.17,Wunderground v.1.15,2013-05-24 05:31:00,
2013-05-23 22:37:00,47.6,46.2,30.09,WSW,238,10.0,16.0,95,0.00,,,0.17,Wunderground v.1.15,2013-05-24 05:37:00,
2013-05-23 22:42:00,47.6,46.5,30.09,WSW,257,8.0,16.0,96,0.00,,,0.17,Wunderground v.1.15,2013-05-24 05:42:00,
2013-05-23 22:48:00,47.6,46.2,30.09,WNW,286,7.0,16.0,95,0.00,,,0.17,Wunderground v.1.15,2013-05-24 05:48:00,
2013-05-23 22:53:00,47.7,46.6,30.09,West,264,7.0,16.0,96,0.00,,,0.17,Wunderground v.1.15,2013-05-24 05:53:00,
2013-05-23 22:59:00,47.5,46.4,30.08,SW,230,7.0,16.0,96,0.00,,,0.17,Wunderground v.1.15,2013-05-24 05:59:00,
2013-05-23 23:05:00,47.6,46.5,30.08,SW,230,7.0,16.0,96,0.00,,,0.18,Wunderground v.1.15,2013-05-24 06:05:00,
2013-05-23 23:11:00,47.0,45.9,30.08,SW,227,8.0,16.0,96,0.00,,,0.18,Wunderground v.1.15,2013-05-24 06:11:00,
2013-05-23 23:17:00,47.1,46.0,30.08,West,271,7.0,16.0,96,0.00,,,0.18,Wunderground v.1.15,2013-05-24 06:17:00,
2013-05-23 23:22:00,47.0,45.9,30.08,West,271,6.0,16.0,96,0.00,,,0.18,Wunderground v.1.15,2013-05-24 06:22:00,
2013-05-23 23:27:00,47.1,46.0,30.08,West,269,4.0,16.0,96,0.00,,,0.18,Wunderground v.1.15,2013-05-24 06:27:00,
2013-05-23 23:33:00,47.2,46.1,30.08,West,268,3.0,16.0,96,0.00,,,0.18,Wunderground v.1.15,2013-05-24 06:33:00,
2013-05-23 23:38:00,47.2,46.1,30.08,WSW,248,4.0,16.0,96,0.00,,,0.19,Wunderground v.1.15,2013-05-24 06:38:00,
2013-05-23 23:43:00,47.2,46.1,30.08,West,275,6.0,16.0,96,0.00,,,0.19,Wunderground v.1.15,2013-05-24 06:43:00,
2013-05-23 23:49:00,47.1,46.0,30.07,West,278,7.0,16.0,96,0.00,,,0.19,Wunderground v.1.15,2013-05-24 06:49:00,
2013-05-23 23:55:00,47.4,46.3,30.08,NW,307,6.0,16.0,96,0.00,,,0.19,Wunderground v.1.15,2013-05-24 06:55:00,